createdAt,value
2023-03-27T00:02:24.074Z,7.10
2023-03-27T00:04:51.215Z,7.10
2023-03-27T00:07:19.989Z,7.10
2023-03-27T00:09:47.151Z,7.10
2023-03-27T00:12:14.284Z,7.20
2023-03-27T00:14:41.590Z,7.20
2023-03-27T00:17:09.413Z,7.30
2023-03-27T00:19:36.597Z,7.30
2023-03-27T00:22:04.024Z,7.40
2023-03-27T00:24:31.399Z,7.40
2023-03-27T00:26:58.475Z,7.50
2023-03-27T00:29:25.846Z,7.50
2023-03-27T00:31:52.817Z,7.60
2023-03-27T00:34:20.430Z,7.60
2023-03-27T00:36:51.249Z,7.60
2023-03-27T00:39:19.480Z,7.60
2023-03-27T00:41:47.381Z,7.60
2023-03-27T00:44:27.687Z,7.50
2023-03-27T00:46:57.210Z,7.50
2023-03-27T00:49:29.033Z,7.50
2023-03-27T00:52:00.000Z,7.50
2023-03-27T00:54:32.301Z,7.50
2023-03-27T00:57:06.843Z,7.40
2023-03-27T00:59:39.786Z,7.40
2023-03-27T01:02:08.414Z,7.30
2023-03-27T01:04:37.812Z,7.20
2023-03-27T01:07:08.769Z,7.20
2023-03-27T01:09:36.629Z,7.20
2023-03-27T01:12:06.730Z,7.10
2023-03-27T01:15:10.935Z,7.10
2023-03-27T01:18:05.360Z,7.10
2023-03-27T01:20:54.464Z,7.00
2023-03-27T01:23:35.743Z,7.00
2023-03-27T01:26:36.251Z,7.00
2023-03-27T01:29:13.957Z,7.00
2023-03-27T01:32:16.685Z,6.90
2023-03-27T01:35:01.305Z,6.90
2023-03-27T01:37:51.852Z,6.90
2023-03-27T01:40:44.137Z,6.90
2023-03-27T01:43:18.495Z,6.90
2023-03-27T01:45:54.803Z,6.90
2023-03-27T01:48:35.310Z,6.90
2023-03-27T01:51:09.578Z,7.00
2023-03-27T01:53:42.352Z,7.00
2023-03-27T01:56:32.814Z,7.00
2023-03-27T01:59:07.282Z,7.00
2023-03-27T02:01:39.059Z,7.00
2023-03-27T02:04:17.879Z,6.90
2023-03-27T02:06:59.302Z,6.90
2023-03-27T02:09:49.327Z,6.90
2023-03-27T02:12:23.878Z,6.80
2023-03-27T02:14:57.071Z,6.80
2023-03-27T02:17:49.735Z,6.80
2023-03-27T02:20:18.027Z,6.70
2023-03-27T02:22:50.557Z,6.70
2023-03-27T02:25:40.200Z,6.70
2023-03-27T02:28:07.738Z,6.70
2023-03-27T02:30:46.373Z,6.60
2023-03-27T02:33:52.381Z,6.60
2023-03-27T02:36:28.458Z,6.50
2023-03-27T02:39:04.733Z,6.50
2023-03-27T02:41:51.391Z,6.50
2023-03-27T02:44:59.187Z,6.50
2023-03-27T02:47:36.599Z,6.40
2023-03-27T02:50:22.593Z,6.40
2023-03-27T02:52:56.734Z,6.40
2023-03-27T02:55:35.734Z,6.30
2023-03-27T02:58:09.083Z,6.30
2023-03-27T03:00:50.448Z,6.30
2023-03-27T03:04:00.259Z,6.30
2023-03-27T03:06:56.481Z,6.30
2023-03-27T03:09:25.028Z,6.20
2023-03-27T03:11:53.539Z,6.20
2023-03-27T03:14:33.746Z,6.10
2023-03-27T03:17:01.171Z,6.10
2023-03-27T03:19:29.374Z,6.10
2023-03-27T03:21:56.529Z,6.00
2023-03-27T03:24:23.485Z,6.00
2023-03-27T03:26:50.784Z,6.00
2023-03-27T03:29:22.212Z,5.90
2023-03-27T03:32:06.470Z,5.90
2023-03-27T03:34:33.817Z,5.90
2023-03-27T03:37:01.200Z,5.90
2023-03-27T03:39:31.636Z,5.80
2023-03-27T03:42:03.032Z,5.80
2023-03-27T03:44:37.365Z,5.80
2023-03-27T03:47:15.033Z,5.80
2023-03-27T03:49:42.798Z,5.80
2023-03-27T03:52:10.190Z,5.80
2023-03-27T03:54:38.953Z,5.80
2023-03-27T03:57:06.263Z,5.80
2023-03-27T03:59:34.318Z,5.80
2023-03-27T04:02:29.448Z,5.80
2023-03-27T04:05:12.068Z,5.80
2023-03-27T04:07:41.349Z,5.90
2023-03-27T04:10:37.560Z,5.90
2023-03-27T04:13:08.738Z,5.90
2023-03-27T04:15:40.416Z,5.90
2023-03-27T04:18:24.854Z,5.90
2023-03-27T04:20:54.630Z,6.00
2023-03-27T04:23:30.338Z,6.00
2023-03-27T04:26:01.112Z,6.00
2023-03-27T04:28:43.693Z,6.00
2023-03-27T04:31:34.757Z,6.00
2023-03-27T04:34:26.016Z,6.00
2023-03-27T04:37:25.724Z,5.90
2023-03-27T04:40:07.088Z,5.90
2023-03-27T04:42:34.319Z,5.90
2023-03-27T04:45:01.875Z,5.90
2023-03-27T04:47:29.888Z,5.90
2023-03-27T04:50:01.031Z,6.00
2023-03-27T04:52:29.816Z,6.00
2023-03-27T04:54:59.300Z,6.10
2023-03-27T04:57:30.970Z,6.20
2023-03-27T05:00:16.834Z,6.20
2023-03-27T05:02:47.907Z,6.20
2023-03-27T05:05:28.430Z,6.00
2023-03-27T05:07:55.462Z,5.90
2023-03-27T05:10:28.209Z,5.70
2023-03-27T05:12:57.853Z,5.60
2023-03-27T05:15:32.378Z,5.60
2023-03-27T05:18:00.638Z,5.60
2023-03-27T05:20:28.061Z,5.60
2023-03-27T05:22:56.527Z,5.60
2023-03-27T05:25:28.954Z,5.60
2023-03-27T05:27:57.035Z,5.60
2023-03-27T05:30:28.318Z,5.50
2023-03-27T05:33:18.770Z,5.50
2023-03-27T05:35:48.623Z,5.50
2023-03-27T05:38:16.943Z,5.40
2023-03-27T05:41:02.720Z,5.40
2023-03-27T05:43:32.233Z,5.40
2023-03-27T05:45:59.581Z,5.40
2023-03-27T05:48:27.480Z,5.50
2023-03-27T05:50:59.451Z,5.50
2023-03-27T05:53:29.941Z,5.40
2023-03-27T05:56:15.608Z,5.40
2023-03-27T05:58:54.145Z,5.40
2023-03-27T06:01:23.342Z,5.40
2023-03-27T06:03:55.994Z,5.40
2023-03-27T06:06:43.738Z,5.30
2023-03-27T06:09:12.727Z,5.30
2023-03-27T06:11:44.975Z,5.40
2023-03-27T06:14:11.895Z,5.40
2023-03-27T06:16:55.888Z,5.50
2023-03-27T06:19:44.517Z,5.60
2023-03-27T06:22:12.679Z,5.60
2023-03-27T06:24:40.148Z,5.70
2023-03-27T06:27:10.716Z,5.70
2023-03-27T06:29:38.363Z,5.70
2023-03-27T06:32:05.393Z,5.70
2023-03-27T06:34:37.789Z,5.70
2023-03-27T06:37:21.643Z,5.80
2023-03-27T06:39:50.727Z,5.80
2023-03-27T06:42:18.485Z,5.90
2023-03-27T06:45:06.154Z,5.90
2023-03-27T06:47:55.822Z,5.90
2023-03-27T06:50:35.557Z,6.00
2023-03-27T06:53:05.806Z,6.00
2023-03-27T06:55:41.048Z,6.00
2023-03-27T06:58:08.716Z,6.10
2023-03-27T07:00:37.409Z,6.10
2023-03-27T07:03:25.715Z,6.20
2023-03-27T07:06:12.561Z,6.20
2023-03-27T07:08:49.179Z,6.30
2023-03-27T07:11:16.560Z,6.40
2023-03-27T07:13:51.885Z,6.70
2023-03-27T07:16:32.198Z,7.00
2023-03-27T07:19:02.231Z,7.10
2023-03-27T07:21:31.176Z,7.20
2023-03-27T07:24:00.813Z,7.30
2023-03-27T07:26:34.079Z,7.50
2023-03-27T07:29:13.557Z,7.50
2023-03-27T07:31:57.650Z,7.60
2023-03-27T07:34:35.026Z,7.60
2023-03-27T07:37:38.215Z,7.60
2023-03-27T07:40:36.797Z,7.70
2023-03-27T07:43:38.184Z,7.70
2023-03-27T07:46:06.492Z,7.80
2023-03-27T07:48:35.960Z,7.90
2023-03-27T07:51:13.498Z,8.00
2023-03-27T07:53:41.764Z,8.10
2023-03-27T07:56:23.582Z,8.20
2023-03-27T07:59:05.829Z,8.30
2023-03-27T08:01:35.247Z,8.40
2023-03-27T08:04:03.748Z,8.60
2023-03-27T08:06:37.278Z,8.70
2023-03-27T08:09:07.077Z,9.00
2023-03-27T08:11:38.663Z,9.30
2023-03-27T08:14:06.612Z,9.20
2023-03-27T08:16:36.423Z,8.60
2023-03-27T08:19:04.442Z,8.10
2023-03-27T08:21:33.366Z,7.70
2023-03-27T08:24:04.719Z,7.40
2023-03-27T08:26:36.647Z,7.20
2023-03-27T08:29:08.404Z,7.00
2023-03-27T08:31:39.429Z,6.90
2023-03-27T08:34:06.693Z,6.90
2023-03-27T08:36:49.427Z,7.00
2023-03-27T08:39:17.501Z,7.20
2023-03-27T08:42:25.554Z,7.40
2023-03-27T08:44:54.989Z,7.60
2023-03-27T08:47:40.489Z,7.80
2023-03-27T08:50:28.219Z,8.00
2023-03-27T08:53:30.863Z,8.10
2023-03-27T08:56:01.318Z,8.20
2023-03-27T08:58:36.361Z,8.30
2023-03-27T09:01:21.676Z,8.40
2023-03-27T09:04:13.737Z,8.50
2023-03-27T09:07:21.933Z,8.70
2023-03-27T09:10:24.440Z,8.80
2023-03-27T09:13:15.351Z,9.00
2023-03-27T09:15:48.729Z,9.10
2023-03-27T09:18:44.255Z,9.10
2023-03-27T09:21:36.468Z,9.30
2023-03-27T09:24:15.754Z,9.40
2023-03-27T09:27:23.398Z,9.60
2023-03-27T09:30:11.691Z,9.70
2023-03-27T09:32:48.821Z,9.90
2023-03-27T09:35:19.262Z,10.10
2023-03-27T09:37:58.761Z,10.30
2023-03-27T09:40:37.964Z,10.40
2023-03-27T09:43:17.839Z,10.30
2023-03-27T09:45:46.778Z,10.10
2023-03-27T09:48:25.349Z,9.60
2023-03-27T09:50:56.743Z,9.10
2023-03-27T09:53:34.932Z,8.40
2023-03-27T09:56:21.143Z,8.00
2023-03-27T09:58:51.369Z,7.80
2023-03-27T10:01:34.649Z,7.60
2023-03-27T10:04:20.212Z,7.50
2023-03-27T10:07:22.158Z,7.40
2023-03-27T10:10:17.620Z,7.50
2023-03-27T10:13:05.450Z,7.80
2023-03-27T10:15:39.384Z,8.00
2023-03-27T10:18:29.636Z,8.20
2023-03-27T10:21:21.683Z,8.50
2023-03-27T10:23:49.985Z,8.70
2023-03-27T10:26:43.749Z,8.80
2023-03-27T10:29:25.948Z,9.00
2023-03-27T10:31:58.149Z,9.20
2023-03-27T10:34:59.720Z,9.50
2023-03-27T10:37:50.501Z,9.90
2023-03-27T10:40:55.317Z,10.10
2023-03-27T10:43:38.189Z,10.10
2023-03-27T10:46:17.422Z,10.00
2023-03-27T10:49:11.409Z,9.90
2023-03-27T10:51:49.042Z,9.60
2023-03-27T10:54:36.858Z,9.30
2023-03-27T10:57:24.336Z,9.00
2023-03-27T11:00:21.452Z,8.90
2023-03-27T11:03:19.044Z,8.70
2023-03-27T11:05:49.461Z,8.80
2023-03-27T11:09:05.249Z,9.00
2023-03-27T11:11:51.296Z,9.30
2023-03-27T11:14:31.329Z,9.50
2023-03-27T11:17:06.434Z,9.70
2023-03-27T11:20:11.354Z,9.90
2023-03-27T11:23:09.306Z,10.20
2023-03-27T11:26:00.025Z,10.50
2023-03-27T11:28:53.155Z,10.60
2023-03-27T11:31:46.270Z,10.20
2023-03-27T11:34:32.668Z,10.10
2023-03-27T11:37:29.952Z,10.30
2023-03-27T11:40:29.303Z,10.60
2023-03-27T11:43:01.318Z,10.80
2023-03-27T11:45:35.092Z,10.70
2023-03-27T11:48:14.401Z,10.80
2023-03-27T11:51:00.764Z,11.00
2023-03-27T11:54:21.927Z,11.00
2023-03-27T11:56:55.940Z,11.10
2023-03-27T12:00:06.954Z,11.40
2023-03-27T12:03:18.901Z,11.70
2023-03-27T12:06:17.001Z,11.40
2023-03-27T12:09:33.236Z,10.50
2023-03-27T12:12:41.145Z,9.60
2023-03-27T12:15:36.876Z,9.10
2023-03-27T12:18:41.252Z,9.20
2023-03-27T12:21:27.790Z,9.40
2023-03-27T12:24:34.130Z,9.60
2023-03-27T12:27:38.562Z,10.00
2023-03-27T12:30:50.193Z,10.60
2023-03-27T12:33:47.239Z,10.80
2023-03-27T12:36:19.637Z,10.80
2023-03-27T12:38:52.115Z,10.50
2023-03-27T12:41:25.958Z,10.50
2023-03-27T12:44:01.851Z,10.70
2023-03-27T12:46:40.883Z,11.00
2023-03-27T12:49:10.939Z,11.30
2023-03-27T12:51:54.838Z,11.30
2023-03-27T12:55:31.315Z,11.10
2023-03-27T12:57:59.546Z,10.90
2023-03-27T13:01:01.084Z,10.70
2023-03-27T13:04:15.870Z,10.60
2023-03-27T13:07:05.351Z,10.40
2023-03-27T13:10:10.317Z,10.20
2023-03-27T13:12:45.292Z,10.20
2023-03-27T13:15:23.229Z,10.30
2023-03-27T13:18:35.921Z,10.70
2023-03-27T13:21:43.045Z,11.40
2023-03-27T13:24:33.048Z,11.90
2023-03-27T13:27:35.092Z,11.80
2023-03-27T13:30:06.864Z,11.40
2023-03-27T13:33:30.871Z,10.90
2023-03-27T13:35:58.476Z,10.40
2023-03-27T13:38:46.534Z,10.10
2023-03-27T13:41:46.484Z,10.00
2023-03-27T13:44:51.562Z,10.10
2023-03-27T13:47:24.650Z,10.30
2023-03-27T13:50:29.891Z,10.20
2023-03-27T13:53:16.778Z,10.00
2023-03-27T13:56:19.104Z,9.70
2023-03-27T13:59:39.954Z,9.50
2023-03-27T14:02:16.410Z,9.30
2023-03-27T14:05:13.757Z,9.10
2023-03-27T14:08:00.276Z,9.10
2023-03-27T14:11:18.851Z,9.30
2023-03-27T14:14:25.269Z,9.40
2023-03-27T14:16:54.725Z,9.60
2023-03-27T14:19:39.069Z,9.70
2023-03-27T14:22:38.038Z,9.90
2023-03-27T14:25:45.554Z,10.00
2023-03-27T14:28:47.012Z,10.20
2023-03-27T14:31:19.170Z,10.40
2023-03-27T14:34:25.623Z,10.70
2023-03-27T14:37:33.364Z,10.90
2023-03-27T14:40:31.644Z,11.10
2023-03-27T14:43:05.334Z,10.90
2023-03-27T14:45:36.859Z,10.80
2023-03-27T14:48:21.218Z,10.70
2023-03-27T14:50:53.512Z,10.60
2023-03-27T14:53:26.230Z,10.50
2023-03-27T14:56:15.225Z,10.40
2023-03-27T14:59:04.371Z,10.60
2023-03-27T15:01:51.439Z,10.70
2023-03-27T15:04:21.983Z,10.90
2023-03-27T15:06:50.051Z,10.90
2023-03-27T15:09:40.326Z,11.00
2023-03-27T15:12:47.730Z,11.10
2023-03-27T15:15:28.915Z,11.20
2023-03-27T15:17:59.748Z,11.20
2023-03-27T15:20:30.455Z,11.10
2023-03-27T15:23:06.530Z,11.00
2023-03-27T15:25:44.767Z,10.90
2023-03-27T15:28:44.296Z,10.70
2023-03-27T15:31:11.985Z,10.60
2023-03-27T15:33:52.884Z,10.60
2023-03-27T15:36:26.989Z,10.80
2023-03-27T15:38:56.102Z,10.90
2023-03-27T15:41:44.522Z,10.90
2023-03-27T15:44:19.248Z,11.00
2023-03-27T15:46:51.757Z,11.10
2023-03-27T15:49:21.947Z,10.90
2023-03-27T15:51:49.185Z,10.70
2023-03-27T15:54:37.610Z,10.50
2023-03-27T15:57:11.684Z,10.40
2023-03-27T15:59:52.489Z,10.30
2023-03-27T16:02:23.231Z,10.50
2023-03-27T16:04:57.668Z,10.70
2023-03-27T16:07:31.588Z,10.70
2023-03-27T16:10:02.816Z,10.50
2023-03-27T16:12:58.375Z,10.30
2023-03-27T16:15:39.040Z,10.00
2023-03-27T16:18:33.556Z,9.80
2023-03-27T16:21:07.860Z,9.60
2023-03-27T16:23:35.001Z,9.50
2023-03-27T16:26:03.906Z,9.40
2023-03-27T16:28:31.314Z,9.40
2023-03-27T16:30:58.487Z,9.30
2023-03-27T16:33:27.521Z,9.20
2023-03-27T16:35:56.629Z,9.10
2023-03-27T16:38:25.459Z,9.10
2023-03-27T16:40:52.373Z,9.00
2023-03-27T16:43:25.856Z,9.00
2023-03-27T16:45:52.843Z,9.20
2023-03-27T16:48:20.341Z,9.40
2023-03-27T16:50:47.287Z,9.60
2023-03-27T16:53:14.132Z,9.70
2023-03-27T16:55:40.986Z,10.00
2023-03-27T16:58:08.326Z,10.10
2023-03-27T17:00:35.247Z,10.20
2023-03-27T17:03:03.013Z,10.00
2023-03-27T17:05:34.439Z,9.90
2023-03-27T17:08:04.155Z,9.80
2023-03-27T17:10:32.673Z,9.70
2023-03-27T17:12:59.672Z,9.50
2023-03-27T17:15:37.259Z,9.40
2023-03-27T17:18:06.077Z,9.30
2023-03-27T17:20:38.594Z,9.20
2023-03-27T17:23:07.266Z,9.20
2023-03-27T17:25:34.900Z,9.40
2023-03-27T17:28:03.344Z,9.50
2023-03-27T17:30:40.879Z,9.60
2023-03-27T17:33:16.884Z,9.70
2023-03-27T17:35:53.090Z,9.80
2023-03-27T17:38:22.838Z,9.70
2023-03-27T17:40:51.240Z,9.60
2023-03-27T17:43:24.025Z,9.50
2023-03-27T17:45:55.380Z,9.40
2023-03-27T17:48:23.700Z,9.30
2023-03-27T17:51:08.093Z,9.10
2023-03-27T17:53:38.714Z,9.00
2023-03-27T17:56:09.986Z,8.80
2023-03-27T18:01:28.817Z,8.60
2023-03-27T18:04:00.924Z,8.50
2023-03-27T18:06:28.280Z,8.40
2023-03-27T18:13:12.983Z,8.30
2023-03-27T18:16:05.208Z,8.20
2023-03-27T18:18:50.538Z,8.10
2023-03-27T18:21:17.963Z,8.10
2023-03-27T18:23:47.147Z,8.00
2023-03-27T18:26:17.295Z,8.00
2023-03-27T18:28:45.299Z,7.90
2023-03-27T18:31:16.013Z,7.80
2023-03-27T18:33:43.399Z,7.80
2023-03-27T18:36:12.275Z,7.70
2023-03-27T18:39:09.828Z,7.60
2023-03-27T18:41:40.142Z,7.50
2023-03-27T18:44:07.484Z,7.50
2023-03-27T18:46:35.005Z,7.40
2023-03-27T18:49:17.468Z,7.40
2023-03-27T18:51:49.140Z,7.30
2023-03-27T18:54:16.796Z,7.30
2023-03-27T18:56:44.197Z,7.30
2023-03-27T18:59:14.604Z,7.20
2023-03-27T19:01:44.293Z,7.20
2023-03-27T19:04:16.472Z,7.10
2023-03-27T19:06:46.462Z,7.10
2023-03-27T19:09:14.712Z,7.10
2023-03-27T19:11:44.379Z,7.10
2023-03-27T19:14:36.994Z,7.10
2023-03-27T19:17:36.090Z,7.00
2023-03-27T19:20:29.482Z,7.00
2023-03-27T19:23:14.631Z,7.00
2023-03-27T19:25:49.918Z,7.00
2023-03-27T19:28:17.899Z,7.00
2023-03-27T19:30:48.467Z,6.90
2023-03-27T19:33:17.357Z,6.90
2023-03-27T19:35:44.941Z,6.90
2023-03-27T19:38:13.407Z,6.90
2023-03-27T19:40:56.552Z,6.90
2023-03-27T19:43:31.557Z,6.90
2023-03-27T19:46:23.580Z,6.90
2023-03-27T19:48:58.270Z,6.90
2023-03-27T19:51:38.983Z,6.90
2023-03-27T19:54:11.374Z,6.80
2023-03-27T19:56:45.158Z,6.80
2023-03-27T19:59:20.763Z,6.90
2023-03-27T20:01:56.864Z,6.80
2023-03-27T20:04:23.939Z,6.80
2023-03-27T20:06:58.174Z,6.70
2023-03-27T20:09:29.720Z,6.70
2023-03-27T20:12:00.326Z,6.70
2023-03-27T20:14:29.702Z,6.70
2023-03-27T20:16:57.769Z,6.70
2023-03-27T20:19:30.871Z,6.70
2023-03-27T20:22:07.948Z,6.70
2023-03-27T20:24:35.696Z,6.60
2023-03-27T20:27:03.811Z,6.60
2023-03-27T20:29:31.358Z,6.60
2023-03-27T20:32:01.114Z,6.60
2023-03-27T20:34:28.163Z,6.60
2023-03-27T20:36:59.132Z,6.60
2023-03-27T20:39:44.793Z,6.50
2023-03-27T20:42:17.665Z,6.50
2023-03-27T20:44:46.391Z,6.60
2023-03-27T20:47:15.385Z,6.50
2023-03-27T20:49:46.490Z,6.50
2023-03-27T20:52:16.768Z,6.50
2023-03-27T20:54:44.242Z,6.50
2023-03-27T20:57:12.861Z,6.50
2023-03-27T20:59:47.451Z,6.40
2023-03-27T21:02:22.242Z,6.40
2023-03-27T21:04:51.827Z,6.40
2023-03-27T21:07:19.650Z,6.40
2023-03-27T21:10:00.359Z,6.30
2023-03-27T21:12:30.744Z,6.30
2023-03-27T21:15:08.017Z,6.30
2023-03-27T21:17:35.540Z,6.30
2023-03-27T21:20:02.827Z,6.20
2023-03-27T21:22:32.758Z,6.20
2023-03-27T21:25:03.099Z,6.20
2023-03-27T21:27:31.147Z,6.20
2023-03-27T21:30:01.902Z,6.10
2023-03-27T21:32:32.366Z,6.10
2023-03-27T21:35:03.456Z,6.20
2023-03-27T21:37:30.931Z,6.20
2023-03-27T21:39:58.470Z,6.20
2023-03-27T21:42:28.711Z,6.20
2023-03-27T21:44:57.361Z,6.20
2023-03-27T21:47:29.664Z,6.20
2023-03-27T21:50:05.234Z,6.30
2023-03-27T21:52:32.493Z,6.30
2023-03-27T21:55:03.274Z,6.30
2023-03-27T21:57:37.371Z,6.30
2023-03-27T22:00:06.587Z,6.30
2023-03-27T22:02:40.690Z,6.30
2023-03-27T22:05:08.766Z,6.30
2023-03-27T22:07:36.221Z,6.30
2023-03-27T22:10:10.987Z,6.20
2023-03-27T22:12:43.245Z,6.20
2023-03-27T22:15:11.179Z,6.20
2023-03-27T22:17:38.471Z,6.20
2023-03-27T22:20:06.944Z,6.20
2023-03-27T22:22:35.635Z,6.20
2023-03-27T22:25:04.627Z,6.10
2023-03-27T22:27:34.599Z,6.10
2023-03-27T22:30:04.091Z,6.10
2023-03-27T22:32:31.692Z,6.00
2023-03-27T22:34:59.500Z,6.00
2023-03-27T22:37:26.896Z,6.00
2023-03-27T22:39:54.385Z,6.00
2023-03-27T22:42:24.648Z,5.90
2023-03-27T22:44:51.899Z,5.90
2023-03-27T22:47:23.819Z,5.90
2023-03-27T22:49:51.450Z,5.90
2023-03-27T22:52:18.589Z,5.90
2023-03-27T22:54:46.102Z,5.90
2023-03-27T22:57:13.392Z,5.90
2023-03-27T22:59:40.632Z,5.90
2023-03-27T23:02:07.999Z,5.90
2023-03-27T23:04:35.582Z,5.90
2023-03-27T23:07:09.553Z,5.80
2023-03-27T23:09:36.986Z,5.80
2023-03-27T23:12:10.670Z,5.80
2023-03-27T23:14:38.090Z,5.80
2023-03-27T23:17:09.081Z,5.80
2023-03-27T23:19:36.490Z,5.80
2023-03-27T23:22:04.569Z,5.80
2023-03-27T23:24:31.670Z,5.80
2023-03-27T23:26:58.921Z,5.90
2023-03-27T23:29:26.432Z,5.90
2023-03-27T23:31:53.899Z,5.90
2023-03-27T23:34:23.028Z,5.90
2023-03-27T23:36:50.514Z,5.90
2023-03-27T23:39:17.785Z,5.90
2023-03-27T23:41:45.047Z,5.80
2023-03-27T23:44:12.840Z,5.80
2023-03-27T23:46:40.272Z,5.80
2023-03-27T23:49:08.239Z,5.80
2023-03-27T23:51:35.603Z,5.70
2023-03-27T23:54:09.082Z,5.70
2023-03-27T23:56:36.616Z,5.70
2023-03-27T23:59:24.308Z,5.60
